createdAt,value
2018-11-07T00:02:17.267Z,7.50
2018-11-07T00:04:46.164Z,7.50
2018-11-07T00:07:15.019Z,7.50
2018-11-07T00:09:43.889Z,7.40
2018-11-07T00:12:12.775Z,7.40
2018-11-07T00:14:41.625Z,7.40
2018-11-07T00:17:10.620Z,7.30
2018-11-07T00:19:39.529Z,7.30
2018-11-07T00:22:08.360Z,7.30
2018-11-07T00:24:37.194Z,7.30
2018-11-07T00:27:06.066Z,7.30
2018-11-07T00:29:34.884Z,7.30
2018-11-07T00:32:03.823Z,7.20
2018-11-07T00:34:32.678Z,7.20
2018-11-07T00:37:01.561Z,7.30
2018-11-07T00:39:30.413Z,7.30
2018-11-07T00:42:02.310Z,7.30
2018-11-07T00:44:31.346Z,7.50
2018-11-07T00:47:00.205Z,7.60
2018-11-07T00:49:29.116Z,7.80
2018-11-07T00:51:58.098Z,7.80
2018-11-07T00:54:26.914Z,7.80
2018-11-07T00:56:55.805Z,7.80
2018-11-07T00:59:24.669Z,7.90
2018-11-07T01:01:53.576Z,7.80
2018-11-07T01:07:20.033Z,7.60
2018-11-07T01:09:48.808Z,7.50
2018-11-07T01:12:17.673Z,7.40
2018-11-07T01:14:46.480Z,7.30
2018-11-07T01:17:15.298Z,7.30
2018-11-07T01:19:44.103Z,7.20
2018-11-07T01:22:12.964Z,7.20
2018-11-07T01:24:41.728Z,7.20
2018-11-07T01:27:10.524Z,7.10
2018-11-07T01:29:39.305Z,7.10
2018-11-07T01:32:08.131Z,7.00
2018-11-07T01:34:36.964Z,7.00
2018-11-07T01:37:05.811Z,7.00
2018-11-07T01:39:34.637Z,7.00
2018-11-07T01:42:03.470Z,6.90
2018-11-07T01:44:32.270Z,6.90
2018-11-07T01:47:01.068Z,6.80
2018-11-07T01:49:29.866Z,6.80
2018-11-07T01:51:58.655Z,6.80
2018-11-07T01:54:27.506Z,6.70
2018-11-07T01:56:56.915Z,6.70
2018-11-07T01:59:25.709Z,6.60
2018-11-07T02:01:54.548Z,6.60
2018-11-07T02:04:23.383Z,6.60
2018-11-07T02:06:52.221Z,6.60
2018-11-07T02:09:21.029Z,6.50
2018-11-07T02:11:49.875Z,6.50
2018-11-07T02:14:18.706Z,6.50
2018-11-07T02:16:48.062Z,6.50
2018-11-07T02:19:16.925Z,6.40
2018-11-07T02:21:45.873Z,6.40
2018-11-07T02:24:14.709Z,6.50
2018-11-07T02:26:43.488Z,6.60
2018-11-07T02:29:13.797Z,6.80
2018-11-07T02:31:44.595Z,7.00
2018-11-07T02:34:14.129Z,7.00
2018-11-07T02:36:43.324Z,7.00
2018-11-07T02:39:13.601Z,6.90
2018-11-07T02:41:42.687Z,6.90
2018-11-07T02:44:12.438Z,7.00
2018-11-07T02:46:41.939Z,7.00
2018-11-07T02:49:10.918Z,7.10
2018-11-07T02:51:39.685Z,7.00
2018-11-07T02:54:08.537Z,7.20
2018-11-07T02:56:37.353Z,7.40
2018-11-07T02:59:06.875Z,7.60
2018-11-07T03:01:35.766Z,7.70
2018-11-07T03:04:04.854Z,7.80
2018-11-07T03:06:33.684Z,7.90
2018-11-07T03:09:02.528Z,7.90
2018-11-07T03:11:31.302Z,8.00
2018-11-07T03:14:00.102Z,8.00
2018-11-07T03:16:29.013Z,8.10
2018-11-07T03:18:58.002Z,8.10
2018-11-07T03:21:26.914Z,8.20
2018-11-07T03:23:55.800Z,8.20
2018-11-07T03:26:24.613Z,8.20
2018-11-07T03:28:53.498Z,8.20
2018-11-07T03:31:25.626Z,8.10
2018-11-07T03:33:55.165Z,8.10
2018-11-07T03:36:24.006Z,8.00
2018-11-07T03:38:52.793Z,8.20
2018-11-07T03:41:21.624Z,8.20
2018-11-07T03:43:50.511Z,8.20
2018-11-07T03:46:19.346Z,8.30
2018-11-07T03:48:48.203Z,8.50
2018-11-07T03:51:17.067Z,8.50
2018-11-07T03:53:45.948Z,8.50
2018-11-07T03:56:14.858Z,8.70
2018-11-07T03:58:43.694Z,8.80
2018-11-07T04:01:12.527Z,8.80
2018-11-07T04:03:41.330Z,8.80
2018-11-07T04:06:10.146Z,8.80
2018-11-07T04:08:38.971Z,8.90
2018-11-07T04:11:07.786Z,8.80
2018-11-07T04:13:39.624Z,8.80
2018-11-07T04:16:08.606Z,8.80
2018-11-07T04:18:37.423Z,8.80
2018-11-07T04:21:06.197Z,8.70
2018-11-07T04:23:35.043Z,8.70
2018-11-07T04:26:04.166Z,8.60
2018-11-07T04:28:33.013Z,8.60
2018-11-07T04:31:02.032Z,8.70
2018-11-07T04:33:30.843Z,8.70
2018-11-07T04:35:59.771Z,8.70
2018-11-07T04:38:28.599Z,8.80
2018-11-07T04:40:57.559Z,8.80
2018-11-07T04:43:26.419Z,8.80
2018-11-07T04:45:55.335Z,8.90
2018-11-07T04:48:24.222Z,8.80
2018-11-07T04:50:53.213Z,8.70
2018-11-07T04:53:22.323Z,8.80
2018-11-07T04:55:51.190Z,8.80
2018-11-07T04:58:20.041Z,8.80
2018-11-07T05:00:48.860Z,8.70
2018-11-07T05:03:18.041Z,8.90
2018-11-07T05:05:46.890Z,8.90
2018-11-07T05:08:15.757Z,8.90
2018-11-07T05:10:44.590Z,9.00
2018-11-07T05:13:13.380Z,8.90
2018-11-07T05:15:42.202Z,8.90
2018-11-07T05:18:11.028Z,8.80
2018-11-07T05:20:42.068Z,8.90
2018-11-07T05:23:10.874Z,8.90
2018-11-07T05:25:39.648Z,8.90
2018-11-07T05:28:08.474Z,8.90
2018-11-07T05:30:37.247Z,8.80
2018-11-07T05:33:06.110Z,8.80
2018-11-07T05:35:35.131Z,8.80
2018-11-07T05:38:04.070Z,8.90
2018-11-07T05:40:33.066Z,8.90
2018-11-07T05:43:02.875Z,9.00
2018-11-07T05:45:32.445Z,9.00
2018-11-07T05:48:01.286Z,9.00
2018-11-07T05:50:30.272Z,9.00
2018-11-07T05:52:59.165Z,9.00
2018-11-07T05:55:28.084Z,8.90
2018-11-07T05:57:56.994Z,8.90
2018-11-07T06:00:25.780Z,8.90
2018-11-07T06:02:54.649Z,8.90
2018-11-07T06:05:23.641Z,8.80
2018-11-07T06:07:52.636Z,8.90
2018-11-07T06:10:21.609Z,8.90
2018-11-07T06:12:50.809Z,8.90
2018-11-07T06:15:20.381Z,9.00
2018-11-07T06:17:49.540Z,8.90
2018-11-07T06:20:19.619Z,8.80
2018-11-07T06:22:49.272Z,8.80
2018-11-07T06:25:19.279Z,8.80
2018-11-07T06:27:49.498Z,8.70
2018-11-07T06:30:18.747Z,8.70
2018-11-07T06:32:47.997Z,8.80
2018-11-07T06:35:16.975Z,8.90
2018-11-07T06:37:46.051Z,8.90
2018-11-07T06:40:14.962Z,8.80
2018-11-07T06:42:43.912Z,8.80
2018-11-07T06:45:12.725Z,8.90
2018-11-07T06:47:41.563Z,8.90
2018-11-07T06:50:13.247Z,8.80
2018-11-07T06:52:42.261Z,8.80
2018-11-07T06:55:11.677Z,8.70
2018-11-07T06:57:40.893Z,8.70
2018-11-07T07:00:13.461Z,8.70
2018-11-07T07:02:42.942Z,8.80
2018-11-07T07:05:11.861Z,8.80
2018-11-07T07:07:40.751Z,8.80
2018-11-07T07:10:13.619Z,8.70
2018-11-07T07:12:42.592Z,8.70
2018-11-07T07:15:13.540Z,8.70
2018-11-07T07:17:42.574Z,8.80
2018-11-07T07:20:15.048Z,8.70
2018-11-07T07:22:44.607Z,8.70
2018-11-07T07:25:13.913Z,8.70
2018-11-07T07:27:43.610Z,8.80
2018-11-07T07:30:13.748Z,8.80
2018-11-07T07:32:44.241Z,8.90
2018-11-07T07:35:13.959Z,8.90
2018-11-07T07:37:42.809Z,8.90
2018-11-07T07:40:13.969Z,8.90
2018-11-07T07:42:43.590Z,8.90
2018-11-07T07:45:14.303Z,8.90
2018-11-07T07:47:43.850Z,8.90
2018-11-07T07:50:13.959Z,9.00
2018-11-07T07:52:43.458Z,8.90
2018-11-07T07:55:12.422Z,8.90
2018-11-07T07:57:41.963Z,9.00
2018-11-07T08:00:13.760Z,8.90
2018-11-07T08:02:47.109Z,8.80
2018-11-07T08:05:16.158Z,8.90
2018-11-07T08:07:45.597Z,8.80
2018-11-07T08:10:19.963Z,8.80
2018-11-07T08:12:49.387Z,8.80
2018-11-07T08:15:19.620Z,8.80
2018-11-07T08:17:48.784Z,8.90
2018-11-07T08:20:18.299Z,8.90
2018-11-07T08:22:47.876Z,8.90
2018-11-07T08:25:16.669Z,9.00
2018-11-07T08:30:21.741Z,8.90
2018-11-07T08:32:50.608Z,9.00
2018-11-07T08:35:19.477Z,9.00
2018-11-07T08:37:49.337Z,9.00
2018-11-07T08:40:19.798Z,9.10
2018-11-07T08:42:48.986Z,9.20
2018-11-07T08:45:17.778Z,9.10
2018-11-07T08:47:47.243Z,9.10
2018-11-07T08:50:20.381Z,9.10
2018-11-07T08:52:49.571Z,9.10
2018-11-07T08:55:19.766Z,9.10
2018-11-07T08:57:48.975Z,9.20
2018-11-07T09:00:22.806Z,9.20
2018-11-07T09:02:51.726Z,9.20
2018-11-07T09:05:21.522Z,9.20
2018-11-07T09:07:50.461Z,9.30
2018-11-07T09:10:20.740Z,9.30
2018-11-07T09:12:49.691Z,9.40
2018-11-07T09:15:19.690Z,9.50
2018-11-07T09:17:48.710Z,9.60
2018-11-07T09:20:20.462Z,9.60
2018-11-07T09:22:49.535Z,9.60
2018-11-07T09:25:18.427Z,9.70
2018-11-07T09:27:47.629Z,9.80
2018-11-07T09:30:18.880Z,9.80
2018-11-07T09:32:47.812Z,9.80
2018-11-07T09:35:16.879Z,9.90
2018-11-07T09:37:45.759Z,10.00
2018-11-07T09:40:16.952Z,9.90
2018-11-07T09:42:46.442Z,10.00
2018-11-07T09:45:16.604Z,10.00
2018-11-07T09:47:46.080Z,10.00
2018-11-07T09:50:21.658Z,10.10
2018-11-07T09:52:50.486Z,10.20
2018-11-07T09:55:20.409Z,10.20
2018-11-07T09:57:49.555Z,10.40
2018-11-07T10:00:19.661Z,10.40
2018-11-07T10:02:48.605Z,10.60
2018-11-07T10:05:18.990Z,10.70
2018-11-07T10:07:47.854Z,10.80
2018-11-07T10:10:18.051Z,10.90
2018-11-07T10:12:47.232Z,11.10
2018-11-07T10:15:16.277Z,11.00
2018-11-07T10:17:45.215Z,11.10
2018-11-07T10:20:17.034Z,11.10
2018-11-07T10:22:46.907Z,11.30
2018-11-07T10:25:16.236Z,11.50
2018-11-07T10:27:45.339Z,11.80
2018-11-07T10:30:16.557Z,12.00
2018-11-07T10:32:46.208Z,11.90
2018-11-07T10:35:15.197Z,12.00
2018-11-07T10:37:44.271Z,12.00
2018-11-07T10:40:19.588Z,12.00
2018-11-07T10:42:48.645Z,12.30
2018-11-07T10:45:17.478Z,12.60
2018-11-07T10:47:47.035Z,12.70
2018-11-07T10:50:17.041Z,13.00
2018-11-07T10:52:46.433Z,12.90
2018-11-07T10:55:16.081Z,12.90
2018-11-07T10:57:45.003Z,13.10
2018-11-07T11:00:20.405Z,13.20
2018-11-07T11:02:54.710Z,13.10
2018-11-07T11:05:23.555Z,13.10
2018-11-07T11:07:52.450Z,13.10
2018-11-07T11:10:21.636Z,13.10
2018-11-07T11:12:50.638Z,13.00
2018-11-07T11:15:19.493Z,13.10
2018-11-07T11:17:48.505Z,13.10
2018-11-07T11:20:17.347Z,13.20
2018-11-07T11:22:46.334Z,13.30
2018-11-07T11:25:15.247Z,13.40
2018-11-07T11:27:44.075Z,13.40
2018-11-07T11:30:12.916Z,13.30
2018-11-07T11:32:41.797Z,13.30
2018-11-07T11:35:11.536Z,13.30
2018-11-07T11:37:40.589Z,13.40
2018-11-07T11:40:11.224Z,13.50
2018-11-07T11:42:40.545Z,13.60
2018-11-07T11:45:11.194Z,13.50
2018-11-07T11:47:40.416Z,13.50
2018-11-07T11:50:12.077Z,13.70
2018-11-07T11:52:41.419Z,13.70
2018-11-07T11:55:10.863Z,13.60
2018-11-07T11:57:40.574Z,13.70
2018-11-07T12:00:12.627Z,13.70
2018-11-07T12:02:41.256Z,13.70
2018-11-07T12:05:11.756Z,13.70
2018-11-07T12:07:43.047Z,13.70
2018-11-07T12:10:19.294Z,13.70
2018-11-07T12:12:49.385Z,13.70
2018-11-07T12:15:19.503Z,13.70
2018-11-07T12:17:48.307Z,13.70
2018-11-07T12:20:17.280Z,13.70
2018-11-07T12:22:46.180Z,13.70
2018-11-07T12:25:15.855Z,13.70
2018-11-07T12:27:44.873Z,13.60
2018-11-07T12:30:15.797Z,13.50
2018-11-07T12:32:45.955Z,13.50
2018-11-07T12:35:15.409Z,13.40
2018-11-07T12:37:47.389Z,13.50
2018-11-07T12:40:16.988Z,13.50
2018-11-07T12:42:45.853Z,13.50
2018-11-07T12:45:15.603Z,13.50
2018-11-07T12:47:44.678Z,13.50
2018-11-07T12:50:16.528Z,13.40
2018-11-07T12:52:45.896Z,13.30
2018-11-07T12:55:15.202Z,13.40
2018-11-07T12:57:44.073Z,13.30
2018-11-07T13:00:16.354Z,13.20
2018-11-07T13:02:45.399Z,13.20
2018-11-07T13:05:15.427Z,13.20
2018-11-07T13:07:45.233Z,13.20
2018-11-07T13:10:20.342Z,13.20
2018-11-07T13:12:55.712Z,13.20
2018-11-07T13:15:24.755Z,13.20
2018-11-07T13:17:53.893Z,13.30
2018-11-07T13:20:26.393Z,13.30
2018-11-07T13:22:55.591Z,13.40
2018-11-07T13:25:25.472Z,13.40
2018-11-07T13:27:54.318Z,13.40
2018-11-07T13:30:23.575Z,13.30
2018-11-07T13:32:52.464Z,13.40
2018-11-07T13:35:21.732Z,13.30
2018-11-07T13:37:51.923Z,13.30
2018-11-07T13:40:22.091Z,13.20
2018-11-07T13:42:50.938Z,13.10
2018-11-07T13:45:20.979Z,12.90
2018-11-07T13:47:50.910Z,12.90
2018-11-07T13:50:20.219Z,12.90
2018-11-07T13:52:49.020Z,12.90
2018-11-07T13:55:17.901Z,12.90
2018-11-07T13:57:47.111Z,12.80
2018-11-07T14:00:17.554Z,12.80
2018-11-07T14:02:50.285Z,12.80
2018-11-07T14:05:19.600Z,12.80
2018-11-07T14:07:48.526Z,12.80
2018-11-07T14:10:19.376Z,12.90
2018-11-07T14:12:48.546Z,12.90
2018-11-07T14:15:17.580Z,13.00
2018-11-07T14:17:46.674Z,12.90
2018-11-07T14:20:15.592Z,12.90
2018-11-07T14:22:44.584Z,12.90
2018-11-07T14:25:13.909Z,12.90
2018-11-07T14:27:42.855Z,12.90
2018-11-07T14:30:13.486Z,13.00
2018-11-07T14:32:44.657Z,13.00
2018-11-07T14:35:13.992Z,12.90
2018-11-07T14:37:42.918Z,13.00
2018-11-07T14:40:11.889Z,12.90
2018-11-07T14:42:40.682Z,12.90
2018-11-07T14:45:10.559Z,12.90
2018-11-07T14:47:39.856Z,12.80
2018-11-07T14:50:09.694Z,12.80
2018-11-07T14:52:38.670Z,12.80
2018-11-07T14:55:08.408Z,12.90
2018-11-07T14:57:37.403Z,12.80
2018-11-07T15:00:10.432Z,12.70
2018-11-07T15:02:40.115Z,12.70
2018-11-07T15:05:10.546Z,12.60
2018-11-07T15:07:39.803Z,12.50
2018-11-07T15:17:14.022Z,12.40
2018-11-07T15:19:43.390Z,12.20
2018-11-07T15:22:12.666Z,12.20
2018-11-07T15:24:41.933Z,12.20
2018-11-07T15:27:11.959Z,12.10
2018-11-07T15:29:41.131Z,12.10
2018-11-07T15:32:10.223Z,12.10
2018-11-07T15:34:39.368Z,12.10
2018-11-07T15:37:08.949Z,12.10
2018-11-07T15:39:38.085Z,12.00
2018-11-07T15:42:07.384Z,12.00
2018-11-07T15:44:36.516Z,11.90
2018-11-07T15:47:05.618Z,11.90
2018-11-07T15:49:34.916Z,11.90
2018-11-07T15:52:04.246Z,11.90
2018-11-07T15:54:33.327Z,12.00
2018-11-07T15:57:02.659Z,12.00
2018-11-07T15:59:31.866Z,11.90
2018-11-07T16:02:01.017Z,11.90
2018-11-07T16:04:30.203Z,12.00
2018-11-07T16:06:59.432Z,11.90
2018-11-07T16:09:28.489Z,11.90
2018-11-07T16:11:57.605Z,11.80
2018-11-07T16:14:26.737Z,11.90
2018-11-07T16:16:55.822Z,11.80
2018-11-07T16:19:25.009Z,11.90
2018-11-07T16:21:54.170Z,11.80
2018-11-07T16:24:23.389Z,11.80
2018-11-07T16:26:52.443Z,11.80
2018-11-07T16:29:21.559Z,11.80
2018-11-07T16:31:50.883Z,11.70
2018-11-07T16:34:20.009Z,11.80
2018-11-07T16:36:49.259Z,11.80
2018-11-07T16:39:18.296Z,11.80
2018-11-07T16:41:47.717Z,11.80
2018-11-07T16:44:16.763Z,11.80
2018-11-07T16:46:46.034Z,11.80
2018-11-07T16:49:15.448Z,11.70
2018-11-07T16:51:44.924Z,11.70
2018-11-07T16:54:21.037Z,11.60
2018-11-07T16:56:51.125Z,11.60
2018-11-07T16:59:20.397Z,11.60
2018-11-07T17:01:49.562Z,11.60
2018-11-07T17:04:18.856Z,11.60
2018-11-07T17:06:47.945Z,11.60
2018-11-07T17:09:17.420Z,11.60
2018-11-07T17:11:46.541Z,11.60
2018-11-07T17:14:15.727Z,11.50
2018-11-07T17:16:44.801Z,11.60
2018-11-07T17:19:13.845Z,11.50
2018-11-07T17:21:42.963Z,11.60
2018-11-07T17:24:12.416Z,11.60
2018-11-07T17:26:41.591Z,11.60
2018-11-07T17:29:10.691Z,11.50
2018-11-07T17:31:39.968Z,11.50
2018-11-07T17:34:09.150Z,11.50
2018-11-07T17:36:41.666Z,11.40
2018-11-07T17:39:11.628Z,11.40
2018-11-07T17:41:40.897Z,11.50
2018-11-07T17:44:10.374Z,11.50
2018-11-07T17:46:39.484Z,11.50
2018-11-07T17:49:08.564Z,11.50
2018-11-07T17:51:37.789Z,11.40
2018-11-07T17:54:06.835Z,11.40
2018-11-07T17:56:36.087Z,11.50
2018-11-07T17:59:05.553Z,11.50
2018-11-07T18:01:34.591Z,11.50
2018-11-07T18:04:03.871Z,11.60
2018-11-07T18:06:33.092Z,11.50
2018-11-07T18:09:02.434Z,11.40
2018-11-07T18:11:31.801Z,11.30
2018-11-07T18:14:01.020Z,11.30
2018-11-07T18:16:30.178Z,11.30
2018-11-07T18:18:59.509Z,11.30
2018-11-07T18:21:28.654Z,11.30
2018-11-07T18:23:58.151Z,11.20
2018-11-07T18:26:27.372Z,11.20
2018-11-07T18:28:56.549Z,11.10
2018-11-07T18:31:25.723Z,11.10
2018-11-07T18:33:55.664Z,11.10
2018-11-07T18:36:24.922Z,11.10
2018-11-07T18:38:54.099Z,11.10
2018-11-07T18:41:23.274Z,11.00
2018-11-07T18:43:52.531Z,11.00
2018-11-07T18:46:21.707Z,11.00
2018-11-07T18:48:50.842Z,11.00
2018-11-07T18:51:20.090Z,11.00
2018-11-07T18:53:49.202Z,10.90
2018-11-07T18:56:18.327Z,10.90
2018-11-07T18:58:47.611Z,10.90
2018-11-07T19:01:16.621Z,10.80
2018-11-07T19:03:45.741Z,10.90
2018-11-07T19:06:15.117Z,10.90
2018-11-07T19:08:44.201Z,10.80
2018-11-07T19:11:13.542Z,10.90
2018-11-07T19:13:42.637Z,10.90
2018-11-07T19:16:11.783Z,10.80
2018-11-07T19:18:40.912Z,10.80
2018-11-07T19:21:09.964Z,10.70
2018-11-07T19:23:39.107Z,10.70
2018-11-07T19:26:08.444Z,10.70
2018-11-07T19:28:37.975Z,10.70
2018-11-07T19:31:07.183Z,10.70
2018-11-07T19:33:36.256Z,10.70
2018-11-07T19:36:05.602Z,10.70
2018-11-07T19:38:34.854Z,10.70
2018-11-07T19:41:03.991Z,10.60
2018-11-07T19:43:33.126Z,10.70
2018-11-07T19:46:02.420Z,10.80
2018-11-07T19:48:31.580Z,10.70
2018-11-07T19:51:00.817Z,10.70
2018-11-07T19:53:30.094Z,10.70
2018-11-07T19:55:59.293Z,10.70
2018-11-07T19:58:28.435Z,10.70
2018-11-07T20:00:57.660Z,10.70
2018-11-07T20:03:26.721Z,10.70
2018-11-07T20:05:55.874Z,10.70
2018-11-07T20:08:25.210Z,10.70
2018-11-07T20:10:54.387Z,10.70
2018-11-07T20:13:23.609Z,10.60
2018-11-07T20:15:53.526Z,10.60
2018-11-07T20:18:22.912Z,10.60
2018-11-07T20:20:52.204Z,10.60
2018-11-07T20:23:21.426Z,10.70
2018-11-07T20:25:50.542Z,10.70
2018-11-07T20:28:19.665Z,10.70
2018-11-07T20:30:48.856Z,10.80
2018-11-07T20:33:20.335Z,10.80
2018-11-07T20:35:49.738Z,10.70
2018-11-07T20:38:18.748Z,10.60
2018-11-07T20:40:47.884Z,10.70
2018-11-07T20:43:17.663Z,10.70
2018-11-07T20:45:46.701Z,10.70
2018-11-07T20:48:15.737Z,10.80
2018-11-07T20:50:44.796Z,10.80
2018-11-07T20:53:13.888Z,10.80
2018-11-07T20:55:43.024Z,10.80
2018-11-07T20:58:12.285Z,10.70
2018-11-07T21:00:41.409Z,10.70
2018-11-07T21:03:10.953Z,10.60
2018-11-07T21:05:40.298Z,10.50
2018-11-07T21:08:09.589Z,10.40
2018-11-07T21:10:38.684Z,10.30
2018-11-07T21:13:07.736Z,10.40
2018-11-07T21:15:36.857Z,10.40
2018-11-07T21:18:06.150Z,10.30
2018-11-07T21:20:35.427Z,10.30
2018-11-07T21:23:05.249Z,10.40
2018-11-07T21:25:34.675Z,10.30
2018-11-07T21:28:04.061Z,10.50
2018-11-07T21:30:33.288Z,10.50
2018-11-07T21:33:02.485Z,10.40
2018-11-07T21:35:31.671Z,10.30
2018-11-07T21:38:00.909Z,10.30
2018-11-07T21:40:30.672Z,10.30
2018-11-07T21:42:59.785Z,10.30
2018-11-07T21:45:28.936Z,10.30
2018-11-07T21:47:58.108Z,10.30
2018-11-07T21:50:27.233Z,10.40
2018-11-07T21:52:56.337Z,10.40
2018-11-07T21:55:25.499Z,10.50
2018-11-07T21:57:54.693Z,10.60
2018-11-07T22:00:23.856Z,10.50
2018-11-07T22:02:55.786Z,10.50
2018-11-07T22:05:24.889Z,10.40
2018-11-07T22:07:54.024Z,10.50
2018-11-07T22:10:23.097Z,10.50
2018-11-07T22:12:52.401Z,10.60
2018-11-07T22:15:21.422Z,10.50
2018-11-07T22:17:50.489Z,10.50
2018-11-07T22:20:21.280Z,10.40
2018-11-07T22:22:50.406Z,10.40
2018-11-07T22:25:19.621Z,10.40
2018-11-07T22:27:48.710Z,10.30
2018-11-07T22:30:18.619Z,10.30
2018-11-07T22:32:47.838Z,10.20
2018-11-07T22:35:17.922Z,10.10
2018-11-07T22:37:47.345Z,10.10
2018-11-07T22:40:17.847Z,10.00
2018-11-07T22:42:47.059Z,9.90
2018-11-07T22:45:17.361Z,10.00
2018-11-07T22:47:46.616Z,9.90
2018-11-07T22:50:16.318Z,9.80
2018-11-07T22:52:46.011Z,9.90
2018-11-07T22:55:15.323Z,9.90
2018-11-07T22:57:44.445Z,9.90
2018-11-07T23:00:22.225Z,9.90
2018-11-07T23:02:52.758Z,9.90
2018-11-07T23:05:21.900Z,9.90
2018-11-07T23:07:51.436Z,9.80
2018-11-07T23:10:20.583Z,9.80
2018-11-07T23:12:50.380Z,9.90
2018-11-07T23:15:24.912Z,9.90
2018-11-07T23:17:54.173Z,10.00
2018-11-07T23:20:23.380Z,9.90
2018-11-07T23:22:52.641Z,9.90
2018-11-07T23:25:22.006Z,10.00
2018-11-07T23:27:51.131Z,10.00
2018-11-07T23:30:20.152Z,10.00
2018-11-07T23:32:53.736Z,10.00
2018-11-07T23:35:23.234Z,10.00
2018-11-07T23:37:52.291Z,10.00
2018-11-07T23:40:21.368Z,10.10
2018-11-07T23:42:50.436Z,10.10
2018-11-07T23:45:19.617Z,10.10
2018-11-07T23:47:48.679Z,10.10
2018-11-07T23:50:17.854Z,10.10
2018-11-07T23:52:47.193Z,10.10
2018-11-07T23:55:17.523Z,10.10
2018-11-07T23:57:47.075Z,10.10
